Detailed System and Site Information

System Data Health
Measure Timestamp Ago Health
Web Server Live 05:52:43, 1st October 2016 0 s health
Last live-data upload from local system (nw3) 05:52:38, 1st October 2016 5 s health
Last upload of secondary data 23:00:23, 30th September 2016 7 hours health
Latest Webcam upload 05:52:08, 1st October 2016 35 s health
Last upload of 24hr data log 05:49:08, 1st October 2016 4 mins health
Last full data process 05:50:07, 1st October 2016 3 mins health
Last data downtime (>15 mins) 11:16:06, 11th September 2016 20 days
Local System and Site Information
Measure Value
WD Version & Build # 10.37R - 40
WD Start Time 14:20 17/09/16
WD Data Count 402452
WD Memory Use 59,504 K
--- ---
Windows Uptime 13 Days 8 Hours 40 Minutes 22 Seconds
Free System Memory 2915 MB (Max: 4GB)
--- ---
Station Altitude 57 m (187 ft)
Station Latitude 51.556
Station Longitude -0.154
Machine Room Conditions
Measure Value
Temperature 22.2 °C
Temperature Trend -0.1 °C /hr
Relative Humidity 40%
Dew Point 8.0 °C
--- ---
Tmin Today 20.6 °C at 06:59
Tmax Today 23.4 °C at 15:53
Hmin Today 35% at 16:02
Hmax Today 43% at 08:07
Tmin Yesterday 17.1 °C at 05:49
Tmax Yesterday 24.3 °C at 15:08

Site owner and administrator: Ben Lee-Rodgers (2010 - present)

Last 10hrs Temp/Hum for Secondary Sensor and Indoors

Extra Sensors/Indoor

Other

Raw METAR from EGLL (Heathrow)

EGLL 010420Z VRB02KT 9999 NSC 10/10 Q1007 NOSIG
Decode Instructions
Source

WD Screenshot

not available